sensor_id;sensor_type;location;lat;lon;timestamp;temperature;humidity
41876;DHT22;27555;50.808;4.402;2023-05-27T00:01:46;13.50;94.70
41876;DHT22;27555;50.808;4.402;2023-05-27T00:04:11;13.30;95.00
41876;DHT22;27555;50.808;4.402;2023-05-27T00:06:37;13.30;95.00
41876;DHT22;27555;50.808;4.402;2023-05-27T00:09:03;13.40;94.90
41876;DHT22;27555;50.808;4.402;2023-05-27T00:11:28;13.60;94.70
41876;DHT22;27555;50.808;4.402;2023-05-27T00:13:54;13.70;94.60
41876;DHT22;27555;50.808;4.402;2023-05-27T00:16:19;13.70;94.50
41876;DHT22;27555;50.808;4.402;2023-05-27T00:18:47;13.80;94.50
41876;DHT22;27555;50.808;4.402;2023-05-27T00:21:14;14.00;94.10
41876;DHT22;27555;50.808;4.402;2023-05-27T00:23:44;13.90;94.20
41876;DHT22;27555;50.808;4.402;2023-05-27T00:26:09;13.80;94.30
41876;DHT22;27555;50.808;4.402;2023-05-27T00:28:35;13.70;94.50
41876;DHT22;27555;50.808;4.402;2023-05-27T00:31:01;13.60;94.80
41876;DHT22;27555;50.808;4.402;2023-05-27T00:33:27;13.40;95.10
41876;DHT22;27555;50.808;4.402;2023-05-27T00:35:53;13.20;95.50
41876;DHT22;27555;50.808;4.402;2023-05-27T00:38:18;13.10;95.60
41876;DHT22;27555;50.808;4.402;2023-05-27T00:40:44;13.10;95.60
41876;DHT22;27555;50.808;4.402;2023-05-27T00:43:11;13.00;95.70
41876;DHT22;27555;50.808;4.402;2023-05-27T00:45:36;13.10;95.70
41876;DHT22;27555;50.808;4.402;2023-05-27T00:48:02;13.00;95.80
41876;DHT22;27555;50.808;4.402;2023-05-27T00:50:28;13.00;95.80
41876;DHT22;27555;50.808;4.402;2023-05-27T00:52:55;13.00;95.80
41876;DHT22;27555;50.808;4.402;2023-05-27T00:55:22;13.10;95.80
41876;DHT22;27555;50.808;4.402;2023-05-27T00:57:48;13.00;96.00
41876;DHT22;27555;50.808;4.402;2023-05-27T01:00:14;13.00;96.00
41876;DHT22;27555;50.808;4.402;2023-05-27T01:02:40;13.00;95.90
41876;DHT22;27555;50.808;4.402;2023-05-27T01:05:08;13.00;95.80
41876;DHT22;27555;50.808;4.402;2023-05-27T01:10:35;12.70;96.30
41876;DHT22;27555;50.808;4.402;2023-05-27T01:13:18;12.90;96.20
41876;DHT22;27555;50.808;4.402;2023-05-27T01:15:48;13.00;95.90
41876;DHT22;27555;50.808;4.402;2023-05-27T01:18:16;12.90;96.00
41876;DHT22;27555;50.808;4.402;2023-05-27T01:20:42;12.80;96.20
41876;DHT22;27555;50.808;4.402;2023-05-27T01:23:09;13.00;96.00
41876;DHT22;27555;50.808;4.402;2023-05-27T01:25:35;12.90;96.00
41876;DHT22;27555;50.808;4.402;2023-05-27T01:28:00;12.50;96.70
41876;DHT22;27555;50.808;4.402;2023-05-27T01:30:26;12.40;97.10
41876;DHT22;27555;50.808;4.402;2023-05-27T01:33:02;12.20;97.30
41876;DHT22;27555;50.808;4.402;2023-05-27T01:35:51;12.20;97.60
41876;DHT22;27555;50.808;4.402;2023-05-27T01:38:20;12.20;97.40
41876;DHT22;27555;50.808;4.402;2023-05-27T01:40:47;12.20;97.40
41876;DHT22;27555;50.808;4.402;2023-05-27T01:43:14;12.50;97.00
41876;DHT22;27555;50.808;4.402;2023-05-27T01:45:41;12.60;96.80
41876;DHT22;27555;50.808;4.402;2023-05-27T01:48:07;12.40;97.00
41876;DHT22;27555;50.808;4.402;2023-05-27T01:50:35;12.20;97.40
41876;DHT22;27555;50.808;4.402;2023-05-27T01:53:01;12.30;97.40
41876;DHT22;27555;50.808;4.402;2023-05-27T01:55:29;12.40;97.20
41876;DHT22;27555;50.808;4.402;2023-05-27T01:57:56;12.40;97.10
41876;DHT22;27555;50.808;4.402;2023-05-27T02:00:22;12.20;97.40
41876;DHT22;27555;50.808;4.402;2023-05-27T02:02:47;12.10;97.70
41876;DHT22;27555;50.808;4.402;2023-05-27T02:05:13;12.30;97.60
41876;DHT22;27555;50.808;4.402;2023-05-27T02:07:39;12.20;97.70
41876;DHT22;27555;50.808;4.402;2023-05-27T02:10:04;12.30;97.40
41876;DHT22;27555;50.808;4.402;2023-05-27T02:12:30;12.40;97.20
41876;DHT22;27555;50.808;4.402;2023-05-27T02:14:56;12.20;97.50
41876;DHT22;27555;50.808;4.402;2023-05-27T02:17:21;12.30;97.40
41876;DHT22;27555;50.808;4.402;2023-05-27T02:19:50;12.20;97.60
41876;DHT22;27555;50.808;4.402;2023-05-27T02:22:16;12.20;97.50
41876;DHT22;27555;50.808;4.402;2023-05-27T02:24:42;11.90;98.20
41876;DHT22;27555;50.808;4.402;2023-05-27T02:27:08;11.80;98.40
41876;DHT22;27555;50.808;4.402;2023-05-27T02:29:34;12.10;98.00
41876;DHT22;27555;50.808;4.402;2023-05-27T02:31:59;12.20;97.70
41876;DHT22;27555;50.808;4.402;2023-05-27T02:34:25;12.00;98.10
41876;DHT22;27555;50.808;4.402;2023-05-27T02:36:50;11.90;98.30
41876;DHT22;27555;50.808;4.402;2023-05-27T02:39:17;12.20;97.80
41876;DHT22;27555;50.808;4.402;2023-05-27T02:41:42;12.20;97.70
41876;DHT22;27555;50.808;4.402;2023-05-27T02:44:08;12.00;98.00
41876;DHT22;27555;50.808;4.402;2023-05-27T02:46:33;11.90;98.20
41876;DHT22;27555;50.808;4.402;2023-05-27T02:48:59;11.80;98.60
41876;DHT22;27555;50.808;4.402;2023-05-27T02:51:25;11.80;98.50
41876;DHT22;27555;50.808;4.402;2023-05-27T02:53:50;11.50;99.00
41876;DHT22;27555;50.808;4.402;2023-05-27T02:56:17;11.40;99.30
41876;DHT22;27555;50.808;4.402;2023-05-27T02:58:42;11.30;99.60
41876;DHT22;27555;50.808;4.402;2023-05-27T03:01:08;11.30;99.70
41876;DHT22;27555;50.808;4.402;2023-05-27T03:03:33;11.50;99.50
41876;DHT22;27555;50.808;4.402;2023-05-27T03:05:59;11.40;99.50
41876;DHT22;27555;50.808;4.402;2023-05-27T03:08:25;11.40;99.70
41876;DHT22;27555;50.808;4.402;2023-05-27T03:10:51;11.20;99.90
41876;DHT22;27555;50.808;4.402;2023-05-27T03:13:17;11.00;99.90
41876;DHT22;27555;50.808;4.402;2023-05-27T03:15:42;10.90;99.90
41876;DHT22;27555;50.808;4.402;2023-05-27T03:18:08;10.80;99.90
41876;DHT22;27555;50.808;4.402;2023-05-27T03:20:33;10.80;99.90
41876;DHT22;27555;50.808;4.402;2023-05-27T03:22:59;10.70;99.90
41876;DHT22;27555;50.808;4.402;2023-05-27T03:25:25;10.70;99.90
41876;DHT22;27555;50.808;4.402;2023-05-27T03:27:50;10.80;99.90
41876;DHT22;27555;50.808;4.402;2023-05-27T03:30:16;11.10;99.90
41876;DHT22;27555;50.808;4.402;2023-05-27T03:32:42;11.00;99.90
41876;DHT22;27555;50.808;4.402;2023-05-27T03:35:07;11.10;99.90
41876;DHT22;27555;50.808;4.402;2023-05-27T03:37:33;11.10;99.90
41876;DHT22;27555;50.808;4.402;2023-05-27T03:39:59;10.90;99.90
41876;DHT22;27555;50.808;4.402;2023-05-27T03:42:24;11.10;99.90
41876;DHT22;27555;50.808;4.402;2023-05-27T03:44:50;11.00;99.90
41876;DHT22;27555;50.808;4.402;2023-05-27T03:47:16;11.30;99.90
41876;DHT22;27555;50.808;4.402;2023-05-27T03:49:46;11.50;99.80
41876;DHT22;27555;50.808;4.402;2023-05-27T03:52:11;11.20;99.90
41876;DHT22;27555;50.808;4.402;2023-05-27T03:54:37;11.00;99.90
41876;DHT22;27555;50.808;4.402;2023-05-27T03:57:03;10.80;99.90
41876;DHT22;27555;50.808;4.402;2023-05-27T03:59:29;10.60;99.90
41876;DHT22;27555;50.808;4.402;2023-05-27T04:01:55;10.80;99.90
41876;DHT22;27555;50.808;4.402;2023-05-27T04:04:20;10.90;99.90
41876;DHT22;27555;50.808;4.402;2023-05-27T04:06:46;11.10;99.90
41876;DHT22;27555;50.808;4.402;2023-05-27T04:09:11;11.20;99.90
41876;DHT22;27555;50.808;4.402;2023-05-27T04:11:37;11.20;99.90
41876;DHT22;27555;50.808;4.402;2023-05-27T04:14:03;11.00;99.90
41876;DHT22;27555;50.808;4.402;2023-05-27T04:16:32;10.90;99.90
41876;DHT22;27555;50.808;4.402;2023-05-27T04:18:59;10.80;99.90
41876;DHT22;27555;50.808;4.402;2023-05-27T04:21:25;10.70;99.90
41876;DHT22;27555;50.808;4.402;2023-05-27T04:23:51;10.70;99.90
41876;DHT22;27555;50.808;4.402;2023-05-27T04:26:17;10.80;99.90
41876;DHT22;27555;50.808;4.402;2023-05-27T04:28:42;10.90;99.90
41876;DHT22;27555;50.808;4.402;2023-05-27T04:31:10;10.90;99.90
41876;DHT22;27555;50.808;4.402;2023-05-27T04:33:40;11.00;99.90
41876;DHT22;27555;50.808;4.402;2023-05-27T04:36:09;11.10;99.90
41876;DHT22;27555;50.808;4.402;2023-05-27T04:38:35;10.90;99.90
41876;DHT22;27555;50.808;4.402;2023-05-27T04:41:01;10.80;99.90
41876;DHT22;27555;50.808;4.402;2023-05-27T04:43:27;10.70;99.90
41876;DHT22;27555;50.808;4.402;2023-05-27T04:45:55;10.50;99.90
41876;DHT22;27555;50.808;4.402;2023-05-27T04:48:22;10.70;99.90
41876;DHT22;27555;50.808;4.402;2023-05-27T04:50:48;11.10;99.90
41876;DHT22;27555;50.808;4.402;2023-05-27T04:53:14;11.10;99.90
41876;DHT22;27555;50.808;4.402;2023-05-27T04:55:41;11.10;99.90
41876;DHT22;27555;50.808;4.402;2023-05-27T04:58:07;11.20;99.90
41876;DHT22;27555;50.808;4.402;2023-05-27T05:00:32;11.20;99.90
41876;DHT22;27555;50.808;4.402;2023-05-27T05:03:07;11.50;99.90
41876;DHT22;27555;50.808;4.402;2023-05-27T05:05:33;11.30;99.90
41876;DHT22;27555;50.808;4.402;2023-05-27T05:07:59;11.20;99.90
41876;DHT22;27555;50.808;4.402;2023-05-27T05:10:25;11.20;99.90
41876;DHT22;27555;50.808;4.402;2023-05-27T05:12:51;11.20;99.90
41876;DHT22;27555;50.808;4.402;2023-05-27T05:15:17;11.30;99.90
41876;DHT22;27555;50.808;4.402;2023-05-27T05:17:43;11.40;99.90
41876;DHT22;27555;50.808;4.402;2023-05-27T05:20:09;11.20;99.90
41876;DHT22;27555;50.808;4.402;2023-05-27T05:22:35;11.10;99.90
41876;DHT22;27555;50.808;4.402;2023-05-27T05:25:01;11.00;99.90
41876;DHT22;27555;50.808;4.402;2023-05-27T05:27:27;10.90;99.90
41876;DHT22;27555;50.808;4.402;2023-05-27T05:29:53;10.90;99.90
41876;DHT22;27555;50.808;4.402;2023-05-27T05:32:19;11.10;99.90
41876;DHT22;27555;50.808;4.402;2023-05-27T05:34:45;11.50;99.90
41876;DHT22;27555;50.808;4.402;2023-05-27T05:37:11;11.50;99.90
41876;DHT22;27555;50.808;4.402;2023-05-27T05:39:37;11.70;99.90
41876;DHT22;27555;50.808;4.402;2023-05-27T05:42:03;11.60;99.90
41876;DHT22;27555;50.808;4.402;2023-05-27T05:44:29;11.80;99.90
41876;DHT22;27555;50.808;4.402;2023-05-27T05:46:54;11.60;99.90
41876;DHT22;27555;50.808;4.402;2023-05-27T05:49:20;11.60;99.90
41876;DHT22;27555;50.808;4.402;2023-05-27T05:51:46;11.70;99.90
41876;DHT22;27555;50.808;4.402;2023-05-27T05:54:11;11.60;99.90
41876;DHT22;27555;50.808;4.402;2023-05-27T05:56:37;11.70;99.90
41876;DHT22;27555;50.808;4.402;2023-05-27T05:59:03;11.80;99.90
41876;DHT22;27555;50.808;4.402;2023-05-27T06:01:28;12.00;99.90
41876;DHT22;27555;50.808;4.402;2023-05-27T06:03:54;12.30;99.50
41876;DHT22;27555;50.808;4.402;2023-05-27T06:06:20;12.30;99.50
41876;DHT22;27555;50.808;4.402;2023-05-27T06:08:47;12.60;99.50
41876;DHT22;27555;50.808;4.402;2023-05-27T06:11:13;12.90;98.70
41876;DHT22;27555;50.808;4.402;2023-05-27T06:13:40;12.60;99.00
41876;DHT22;27555;50.808;4.402;2023-05-27T06:16:06;12.40;99.40
41876;DHT22;27555;50.808;4.402;2023-05-27T06:18:31;12.40;99.50
41876;DHT22;27555;50.808;4.402;2023-05-27T06:20:57;12.40;99.60
41876;DHT22;27555;50.808;4.402;2023-05-27T06:23:23;12.30;99.70
41876;DHT22;27555;50.808;4.402;2023-05-27T06:25:49;12.50;99.80
41876;DHT22;27555;50.808;4.402;2023-05-27T06:28:15;12.70;99.00
41876;DHT22;27555;50.808;4.402;2023-05-27T06:30:40;12.90;99.20
41876;DHT22;27555;50.808;4.402;2023-05-27T06:33:08;12.90;99.00
41876;DHT22;27555;50.808;4.402;2023-05-27T06:35:33;12.80;99.10
41876;DHT22;27555;50.808;4.402;2023-05-27T06:37:59;12.90;99.00
41876;DHT22;27555;50.808;4.402;2023-05-27T06:40:25;13.10;98.80
41876;DHT22;27555;50.808;4.402;2023-05-27T06:42:50;13.40;98.50
41876;DHT22;27555;50.808;4.402;2023-05-27T06:45:16;13.40;98.20
41876;DHT22;27555;50.808;4.402;2023-05-27T06:47:42;13.40;98.30
41876;DHT22;27555;50.808;4.402;2023-05-27T06:50:08;13.90;97.80
41876;DHT22;27555;50.808;4.402;2023-05-27T06:52:33;15.10;96.30
41876;DHT22;27555;50.808;4.402;2023-05-27T06:54:59;16.30;94.80
41876;DHT22;27555;50.808;4.402;2023-05-27T06:57:24;16.90;94.10
41876;DHT22;27555;50.808;4.402;2023-05-27T06:59:50;17.60;92.80
41876;DHT22;27555;50.808;4.402;2023-05-27T07:02:16;17.70;92.10
41876;DHT22;27555;50.808;4.402;2023-05-27T07:04:41;17.70;92.40
41876;DHT22;27555;50.808;4.402;2023-05-27T07:07:07;18.70;91.50
41876;DHT22;27555;50.808;4.402;2023-05-27T07:09:32;19.50;90.60
41876;DHT22;27555;50.808;4.402;2023-05-27T07:11:59;19.80;90.00
41876;DHT22;27555;50.808;4.402;2023-05-27T07:14:25;19.90;89.90
41876;DHT22;27555;50.808;4.402;2023-05-27T07:16:51;19.90;89.10
41876;DHT22;27555;50.808;4.402;2023-05-27T07:19:17;19.10;90.10
41876;DHT22;27555;50.808;4.402;2023-05-27T07:21:43;19.20;90.10
41876;DHT22;27555;50.808;4.402;2023-05-27T07:24:08;19.70;88.90
41876;DHT22;27555;50.808;4.402;2023-05-27T07:26:34;19.20;90.00
41876;DHT22;27555;50.808;4.402;2023-05-27T07:29:00;19.10;89.90
41876;DHT22;27555;50.808;4.402;2023-05-27T07:31:27;19.90;89.20
41876;DHT22;27555;50.808;4.402;2023-05-27T07:33:53;19.60;89.10
41876;DHT22;27555;50.808;4.402;2023-05-27T07:36:19;19.50;89.80
41876;DHT22;27555;50.808;4.402;2023-05-27T07:38:45;20.20;88.00
41876;DHT22;27555;50.808;4.402;2023-05-27T07:41:11;20.60;87.10
41876;DHT22;27555;50.808;4.402;2023-05-27T07:43:37;21.30;85.90
41876;DHT22;27555;50.808;4.402;2023-05-27T07:46:03;21.00;85.40
41876;DHT22;27555;50.808;4.402;2023-05-27T07:48:29;21.00;86.20
41876;DHT22;27555;50.808;4.402;2023-05-27T07:50:55;21.50;85.50
41876;DHT22;27555;50.808;4.402;2023-05-27T07:53:20;21.90;84.50
41876;DHT22;27555;50.808;4.402;2023-05-27T07:55:46;21.70;84.10
41876;DHT22;27555;50.808;4.402;2023-05-27T07:58:13;21.50;84.50
41876;DHT22;27555;50.808;4.402;2023-05-27T08:00:38;21.50;84.50
41876;DHT22;27555;50.808;4.402;2023-05-27T08:03:04;21.50;84.80
41876;DHT22;27555;50.808;4.402;2023-05-27T08:05:30;22.10;84.00
41876;DHT22;27555;50.808;4.402;2023-05-27T08:07:55;22.50;83.10
41876;DHT22;27555;50.808;4.402;2023-05-27T08:10:21;22.00;83.40
41876;DHT22;27555;50.808;4.402;2023-05-27T08:12:46;22.40;83.10
41876;DHT22;27555;50.808;4.402;2023-05-27T08:15:12;22.90;82.40
41876;DHT22;27555;50.808;4.402;2023-05-27T08:17:38;23.20;81.50
41876;DHT22;27555;50.808;4.402;2023-05-27T08:20:04;23.80;80.70
41876;DHT22;27555;50.808;4.402;2023-05-27T08:22:31;23.90;80.80
41876;DHT22;27555;50.808;4.402;2023-05-27T08:24:57;23.70;80.10
41876;DHT22;27555;50.808;4.402;2023-05-27T08:27:52;23.10;81.30
41876;DHT22;27555;50.808;4.402;2023-05-27T08:30:18;24.00;80.80
41876;DHT22;27555;50.808;4.402;2023-05-27T08:32:44;23.90;80.20
41876;DHT22;27555;50.808;4.402;2023-05-27T08:35:10;23.40;80.80
41876;DHT22;27555;50.808;4.402;2023-05-27T08:37:36;23.60;81.20
41876;DHT22;27555;50.808;4.402;2023-05-27T08:40:03;23.90;80.30
41876;DHT22;27555;50.808;4.402;2023-05-27T08:42:33;24.40;79.60
41876;DHT22;27555;50.808;4.402;2023-05-27T08:45:00;24.70;78.50
41876;DHT22;27555;50.808;4.402;2023-05-27T08:47:28;25.50;78.00
41876;DHT22;27555;50.808;4.402;2023-05-27T08:49:54;26.00;77.10
41876;DHT22;27555;50.808;4.402;2023-05-27T08:52:20;26.10;76.70
41876;DHT22;27555;50.808;4.402;2023-05-27T08:54:47;26.50;75.70
41876;DHT22;27555;50.808;4.402;2023-05-27T08:57:17;25.10;77.00
41876;DHT22;27555;50.808;4.402;2023-05-27T08:59:44;25.20;77.20
41876;DHT22;27555;50.808;4.402;2023-05-27T09:02:13;26.10;76.80
41876;DHT22;27555;50.808;4.402;2023-05-27T09:04:40;26.40;76.60
41876;DHT22;27555;50.808;4.402;2023-05-27T09:07:06;26.40;76.30
41876;DHT22;27555;50.808;4.402;2023-05-27T09:09:31;25.10;77.10
41876;DHT22;27555;50.808;4.402;2023-05-27T09:12:03;25.80;77.30
41876;DHT22;27555;50.808;4.402;2023-05-27T09:14:29;26.20;76.00
41876;DHT22;27555;50.808;4.402;2023-05-27T09:16:56;26.10;75.90
41876;DHT22;27555;50.808;4.402;2023-05-27T09:19:21;26.40;76.30
41876;DHT22;27555;50.808;4.402;2023-05-27T09:21:51;26.10;75.80
41876;DHT22;27555;50.808;4.402;2023-05-27T09:24:23;27.10;75.70
41876;DHT22;27555;50.808;4.402;2023-05-27T09:26:51;27.60;74.60
41876;DHT22;27555;50.808;4.402;2023-05-27T09:29:18;26.40;75.70
41876;DHT22;27555;50.808;4.402;2023-05-27T09:31:44;26.90;75.50
41876;DHT22;27555;50.808;4.402;2023-05-27T09:34:17;27.50;74.50
41876;DHT22;27555;50.808;4.402;2023-05-27T09:36:46;28.00;73.80
41876;DHT22;27555;50.808;4.402;2023-05-27T09:39:14;28.80;73.50
41876;DHT22;27555;50.808;4.402;2023-05-27T09:41:40;28.60;73.10
41876;DHT22;27555;50.808;4.402;2023-05-27T09:44:06;28.80;72.60
41876;DHT22;27555;50.808;4.402;2023-05-27T09:46:33;28.90;72.20
41876;DHT22;27555;50.808;4.402;2023-05-27T09:48:59;28.90;73.00
41876;DHT22;27555;50.808;4.402;2023-05-27T09:51:29;29.40;72.10
41876;DHT22;27555;50.808;4.402;2023-05-27T09:53:58;29.50;72.00
41876;DHT22;27555;50.808;4.402;2023-05-27T09:56:25;28.30;72.90
41876;DHT22;27555;50.808;4.402;2023-05-27T09:58:56;29.00;72.30
41876;DHT22;27555;50.808;4.402;2023-05-27T10:01:26;27.80;72.80
41876;DHT22;27555;50.808;4.402;2023-05-27T10:03:56;28.20;73.00
41876;DHT22;27555;50.808;4.402;2023-05-27T10:06:25;28.50;72.30
41876;DHT22;27555;50.808;4.402;2023-05-27T10:08:55;28.40;72.70
41876;DHT22;27555;50.808;4.402;2023-05-27T10:11:24;27.90;73.50
41876;DHT22;27555;50.808;4.402;2023-05-27T10:13:51;28.30;73.10
41876;DHT22;27555;50.808;4.402;2023-05-27T10:16:21;29.00;72.30
41876;DHT22;27555;50.808;4.402;2023-05-27T10:18:48;29.30;71.30
41876;DHT22;27555;50.808;4.402;2023-05-27T10:21:19;29.10;71.70
41876;DHT22;27555;50.808;4.402;2023-05-27T10:23:56;29.10;71.90
41876;DHT22;27555;50.808;4.402;2023-05-27T10:26:41;29.20;71.70
41876;DHT22;27555;50.808;4.402;2023-05-27T10:29:09;29.40;71.90
41876;DHT22;27555;50.808;4.402;2023-05-27T10:31:46;30.20;71.20
41876;DHT22;27555;50.808;4.402;2023-05-27T10:34:12;30.20;70.60
41876;DHT22;27555;50.808;4.402;2023-05-27T10:36:38;30.10;70.00
41876;DHT22;27555;50.808;4.402;2023-05-27T10:39:16;30.40;69.90
41876;DHT22;27555;50.808;4.402;2023-05-27T10:41:49;30.70;70.30
41876;DHT22;27555;50.808;4.402;2023-05-27T10:46:59;29.00;72.10
41876;DHT22;27555;50.808;4.402;2023-05-27T10:49:27;29.40;71.40
41876;DHT22;27555;50.808;4.402;2023-05-27T10:54:34;30.60;69.40
41876;DHT22;27555;50.808;4.402;2023-05-27T10:57:02;30.40;69.40
41876;DHT22;27555;50.808;4.402;2023-05-27T10:59:36;30.00;69.60
41876;DHT22;27555;50.808;4.402;2023-05-27T11:02:05;30.20;69.40
41876;DHT22;27555;50.808;4.402;2023-05-27T11:04:35;30.20;69.00
41876;DHT22;27555;50.808;4.402;2023-05-27T11:07:01;30.10;69.00
41876;DHT22;27555;50.808;4.402;2023-05-27T11:09:26;29.90;69.30
41876;DHT22;27555;50.808;4.402;2023-05-27T11:11:54;29.90;69.50
41876;DHT22;27555;50.808;4.402;2023-05-27T11:14:20;29.60;68.60
41876;DHT22;27555;50.808;4.402;2023-05-27T11:16:48;28.80;69.90
41876;DHT22;27555;50.808;4.402;2023-05-27T11:19:17;28.60;70.10
41876;DHT22;27555;50.808;4.402;2023-05-27T11:21:45;28.90;68.40
41876;DHT22;27555;50.808;4.402;2023-05-27T11:24:18;29.30;68.70
41876;DHT22;27555;50.808;4.402;2023-05-27T11:26:45;29.70;68.70
41876;DHT22;27555;50.808;4.402;2023-05-27T11:29:13;29.50;68.50
41876;DHT22;27555;50.808;4.402;2023-05-27T11:31:40;29.10;68.60
41876;DHT22;27555;50.808;4.402;2023-05-27T11:34:12;29.00;69.00
41876;DHT22;27555;50.808;4.402;2023-05-27T11:36:39;28.80;68.70
41876;DHT22;27555;50.808;4.402;2023-05-27T11:39:05;29.00;68.80
41876;DHT22;27555;50.808;4.402;2023-05-27T11:41:32;28.60;68.40
41876;DHT22;27555;50.808;4.402;2023-05-27T11:44:04;29.10;67.70
41876;DHT22;27555;50.808;4.402;2023-05-27T11:46:37;29.10;67.50
41876;DHT22;27555;50.808;4.402;2023-05-27T11:49:04;28.60;67.70
41876;DHT22;27555;50.808;4.402;2023-05-27T11:51:30;29.00;66.90
41876;DHT22;27555;50.808;4.402;2023-05-27T11:53:58;28.70;68.00
41876;DHT22;27555;50.808;4.402;2023-05-27T11:56:24;28.30;68.30
41876;DHT22;27555;50.808;4.402;2023-05-27T11:58:50;28.50;68.70
41876;DHT22;27555;50.808;4.402;2023-05-27T12:01:16;28.10;67.60
41876;DHT22;27555;50.808;4.402;2023-05-27T12:03:42;27.90;67.80
41876;DHT22;27555;50.808;4.402;2023-05-27T12:06:07;28.10;68.10
41876;DHT22;27555;50.808;4.402;2023-05-27T12:08:33;27.60;65.80
41876;DHT22;27555;50.808;4.402;2023-05-27T12:10:58;27.40;66.20
41876;DHT22;27555;50.808;4.402;2023-05-27T12:13:24;27.10;67.70
41876;DHT22;27555;50.808;4.402;2023-05-27T12:15:51;26.20;68.40
41876;DHT22;27555;50.808;4.402;2023-05-27T12:18:17;25.70;68.80
41876;DHT22;27555;50.808;4.402;2023-05-27T12:20:44;25.10;69.20
41876;DHT22;27555;50.808;4.402;2023-05-27T12:23:10;25.00;70.10
41876;DHT22;27555;50.808;4.402;2023-05-27T12:25:35;24.80;71.10
41876;DHT22;27555;50.808;4.402;2023-05-27T12:28:01;24.50;72.50
41876;DHT22;27555;50.808;4.402;2023-05-27T12:30:27;24.30;72.70
41876;DHT22;27555;50.808;4.402;2023-05-27T12:32:52;24.30;73.00
41876;DHT22;27555;50.808;4.402;2023-05-27T12:35:18;24.40;72.70
41876;DHT22;27555;50.808;4.402;2023-05-27T12:37:43;24.30;72.50
41876;DHT22;27555;50.808;4.402;2023-05-27T12:40:10;24.30;73.70
41876;DHT22;27555;50.808;4.402;2023-05-27T12:42:40;24.30;72.90
41876;DHT22;27555;50.808;4.402;2023-05-27T12:45:06;24.10;70.30
41876;DHT22;27555;50.808;4.402;2023-05-27T12:47:32;23.90;71.80
41876;DHT22;27555;50.808;4.402;2023-05-27T12:49:58;23.80;71.50
41876;DHT22;27555;50.808;4.402;2023-05-27T12:52:24;23.70;71.50
41876;DHT22;27555;50.808;4.402;2023-05-27T12:54:50;23.80;71.60
41876;DHT22;27555;50.808;4.402;2023-05-27T12:57:16;24.00;72.40
41876;DHT22;27555;50.808;4.402;2023-05-27T12:59:42;24.30;72.50
41876;DHT22;27555;50.808;4.402;2023-05-27T13:02:08;24.40;71.40
41876;DHT22;27555;50.808;4.402;2023-05-27T13:04:33;24.00;70.70
41876;DHT22;27555;50.808;4.402;2023-05-27T13:06:59;23.90;69.20
41876;DHT22;27555;50.808;4.402;2023-05-27T13:09:25;23.80;71.00
41876;DHT22;27555;50.808;4.402;2023-05-27T13:11:51;23.80;72.20
41876;DHT22;27555;50.808;4.402;2023-05-27T13:14:16;23.90;71.90
41876;DHT22;27555;50.808;4.402;2023-05-27T13:16:42;23.70;72.50
41876;DHT22;27555;50.808;4.402;2023-05-27T13:19:07;24.00;71.40
41876;DHT22;27555;50.808;4.402;2023-05-27T13:21:33;24.30;69.40
41876;DHT22;27555;50.808;4.402;2023-05-27T13:23:59;24.30;69.00
41876;DHT22;27555;50.808;4.402;2023-05-27T13:26:25;24.30;71.40
41876;DHT22;27555;50.808;4.402;2023-05-27T13:28:51;24.20;72.70
41876;DHT22;27555;50.808;4.402;2023-05-27T13:31:17;24.00;72.40
41876;DHT22;27555;50.808;4.402;2023-05-27T13:33:42;24.10;72.50
41876;DHT22;27555;50.808;4.402;2023-05-27T13:36:08;24.00;73.00
41876;DHT22;27555;50.808;4.402;2023-05-27T13:38:34;23.90;72.90
41876;DHT22;27555;50.808;4.402;2023-05-27T13:40:59;23.90;72.40
41876;DHT22;27555;50.808;4.402;2023-05-27T13:43:25;24.00;71.40
41876;DHT22;27555;50.808;4.402;2023-05-27T13:45:51;23.80;72.10
41876;DHT22;27555;50.808;4.402;2023-05-27T13:48:17;23.90;71.10
41876;DHT22;27555;50.808;4.402;2023-05-27T13:50:42;23.90;69.70
41876;DHT22;27555;50.808;4.402;2023-05-27T13:53:08;23.60;72.10
41876;DHT22;27555;50.808;4.402;2023-05-27T13:55:34;23.60;71.70
41876;DHT22;27555;50.808;4.402;2023-05-27T13:57:59;23.80;71.80
41876;DHT22;27555;50.808;4.402;2023-05-27T14:00:25;24.10;71.40
41876;DHT22;27555;50.808;4.402;2023-05-27T14:02:51;24.30;71.50
41876;DHT22;27555;50.808;4.402;2023-05-27T14:05:17;24.60;70.80
41876;DHT22;27555;50.808;4.402;2023-05-27T14:07:43;24.60;71.40
41876;DHT22;27555;50.808;4.402;2023-05-27T14:10:10;24.30;70.90
41876;DHT22;27555;50.808;4.402;2023-05-27T14:12:36;23.80;71.70
41876;DHT22;27555;50.808;4.402;2023-05-27T14:15:02;24.10;71.60
41876;DHT22;27555;50.808;4.402;2023-05-27T14:17:28;24.10;70.60
41876;DHT22;27555;50.808;4.402;2023-05-27T14:19:53;24.30;71.00
41876;DHT22;27555;50.808;4.402;2023-05-27T14:22:19;24.10;71.90
41876;DHT22;27555;50.808;4.402;2023-05-27T14:24:45;24.10;72.50
41876;DHT22;27555;50.808;4.402;2023-05-27T14:27:11;24.00;73.00
41876;DHT22;27555;50.808;4.402;2023-05-27T14:29:37;24.30;72.20
41876;DHT22;27555;50.808;4.402;2023-05-27T14:32:03;24.20;71.70
41876;DHT22;27555;50.808;4.402;2023-05-27T14:34:28;24.10;71.70
41876;DHT22;27555;50.808;4.402;2023-05-27T14:36:54;24.30;71.80
41876;DHT22;27555;50.808;4.402;2023-05-27T14:39:20;24.50;71.00
41876;DHT22;27555;50.808;4.402;2023-05-27T14:41:45;24.60;70.50
41876;DHT22;27555;50.808;4.402;2023-05-27T14:44:11;24.70;70.10
41876;DHT22;27555;50.808;4.402;2023-05-27T14:46:38;24.50;69.00
41876;DHT22;27555;50.808;4.402;2023-05-27T14:49:03;24.20;69.00
41876;DHT22;27555;50.808;4.402;2023-05-27T14:51:29;24.40;68.80
41876;DHT22;27555;50.808;4.402;2023-05-27T14:53:55;24.60;68.90
41876;DHT22;27555;50.808;4.402;2023-05-27T14:56:20;24.70;68.90
41876;DHT22;27555;50.808;4.402;2023-05-27T14:58:47;24.40;68.70
41876;DHT22;27555;50.808;4.402;2023-05-27T15:01:16;24.30;69.70
41876;DHT22;27555;50.808;4.402;2023-05-27T15:03:42;24.30;71.00
41876;DHT22;27555;50.808;4.402;2023-05-27T15:06:08;24.30;71.40
41876;DHT22;27555;50.808;4.402;2023-05-27T15:08:35;24.30;71.50
41876;DHT22;27555;50.808;4.402;2023-05-27T15:11:01;24.30;71.80
41876;DHT22;27555;50.808;4.402;2023-05-27T15:13:27;24.30;72.00
41876;DHT22;27555;50.808;4.402;2023-05-27T15:15:53;24.30;71.90
41876;DHT22;27555;50.808;4.402;2023-05-27T15:18:18;24.60;72.00
41876;DHT22;27555;50.808;4.402;2023-05-27T15:20:44;24.80;71.70
41876;DHT22;27555;50.808;4.402;2023-05-27T15:23:10;24.80;71.50
41876;DHT22;27555;50.808;4.402;2023-05-27T15:25:35;24.70;71.00
41876;DHT22;27555;50.808;4.402;2023-05-27T15:28:01;24.70;71.00
41876;DHT22;27555;50.808;4.402;2023-05-27T15:30:27;24.60;71.60
41876;DHT22;27555;50.808;4.402;2023-05-27T15:32:53;24.80;71.50
41876;DHT22;27555;50.808;4.402;2023-05-27T15:35:18;24.80;70.60